sensor_id;sensor_type;location;lat;lon;timestamp;P1;durP1;ratioP1;P2;durP2;ratioP2
56481;SDS011;42384;45.186;19.958;2023-01-06T00:00:43;7.10;;;2.23;;
56481;SDS011;42384;45.186;19.958;2023-01-06T00:03:09;5.65;;;2.53;;
56481;SDS011;42384;45.186;19.958;2023-01-06T00:05:35;4.90;;;2.60;;
56481;SDS011;42384;45.186;19.958;2023-01-06T00:08:01;8.25;;;2.97;;
56481;SDS011;42384;45.186;19.958;2023-01-06T00:10:28;6.17;;;2.63;;
56481;SDS011;42384;45.186;19.958;2023-01-06T00:12:54;7.88;;;3.58;;
56481;SDS011;42384;45.186;19.958;2023-01-06T00:15:20;5.45;;;2.63;;
56481;SDS011;42384;45.186;19.958;2023-01-06T00:17:46;9.27;;;3.15;;
56481;SDS011;42384;45.186;19.958;2023-01-06T00:20:12;6.28;;;3.13;;
56481;SDS011;42384;45.186;19.958;2023-01-06T00:22:39;5.80;;;2.70;;
56481;SDS011;42384;45.186;19.958;2023-01-06T00:25:06;9.45;;;3.13;;
56481;SDS011;42384;45.186;19.958;2023-01-06T00:27:34;6.85;;;3.03;;
56481;SDS011;42384;45.186;19.958;2023-01-06T00:30:00;9.57;;;4.03;;
56481;SDS011;42384;45.186;19.958;2023-01-06T00:32:26;9.47;;;3.00;;
56481;SDS011;42384;45.186;19.958;2023-01-06T00:34:52;7.68;;;2.72;;
56481;SDS011;42384;45.186;19.958;2023-01-06T00:37:19;4.80;;;2.63;;
56481;SDS011;42384;45.186;19.958;2023-01-06T00:39:45;8.15;;;3.42;;
56481;SDS011;42384;45.186;19.958;2023-01-06T00:42:11;7.07;;;2.87;;
56481;SDS011;42384;45.186;19.958;2023-01-06T00:44:38;6.78;;;2.85;;
56481;SDS011;42384;45.186;19.958;2023-01-06T00:47:06;7.03;;;3.15;;
56481;SDS011;42384;45.186;19.958;2023-01-06T00:49:32;5.95;;;2.70;;
56481;SDS011;42384;45.186;19.958;2023-01-06T00:51:58;5.83;;;2.60;;
56481;SDS011;42384;45.186;19.958;2023-01-06T00:54:24;6.65;;;2.40;;
56481;SDS011;42384;45.186;19.958;2023-01-06T00:56:51;6.30;;;2.50;;
56481;SDS011;42384;45.186;19.958;2023-01-06T00:59:21;6.10;;;3.15;;
56481;SDS011;42384;45.186;19.958;2023-01-06T01:01:49;7.90;;;3.15;;
56481;SDS011;42384;45.186;19.958;2023-01-06T01:04:15;7.22;;;2.95;;
56481;SDS011;42384;45.186;19.958;2023-01-06T01:06:43;5.03;;;2.80;;
56481;SDS011;42384;45.186;19.958;2023-01-06T01:09:12;8.20;;;3.28;;
56481;SDS011;42384;45.186;19.958;2023-01-06T01:11:38;7.35;;;2.80;;
56481;SDS011;42384;45.186;19.958;2023-01-06T01:14:23;6.70;;;2.88;;
56481;SDS011;42384;45.186;19.958;2023-01-06T01:16:49;6.60;;;3.65;;
56481;SDS011;42384;45.186;19.958;2023-01-06T01:19:16;6.22;;;2.63;;
56481;SDS011;42384;45.186;19.958;2023-01-06T01:21:42;6.43;;;3.03;;
56481;SDS011;42384;45.186;19.958;2023-01-06T01:24:08;6.63;;;3.00;;
56481;SDS011;42384;45.186;19.958;2023-01-06T01:26:34;5.72;;;2.92;;
56481;SDS011;42384;45.186;19.958;2023-01-06T01:29:00;6.03;;;2.87;;
56481;SDS011;42384;45.186;19.958;2023-01-06T01:31:27;6.30;;;2.58;;
56481;SDS011;42384;45.186;19.958;2023-01-06T01:33:53;5.57;;;2.92;;
56481;SDS011;42384;45.186;19.958;2023-01-06T01:36:19;6.25;;;3.05;;
56481;SDS011;42384;45.186;19.958;2023-01-06T01:38:45;7.68;;;3.10;;
56481;SDS011;42384;45.186;19.958;2023-01-06T01:41:12;9.20;;;3.07;;
56481;SDS011;42384;45.186;19.958;2023-01-06T01:43:48;6.22;;;2.83;;
56481;SDS011;42384;45.186;19.958;2023-01-06T01:46:20;5.10;;;2.33;;
56481;SDS011;42384;45.186;19.958;2023-01-06T01:48:46;6.68;;;2.90;;
56481;SDS011;42384;45.186;19.958;2023-01-06T01:51:15;5.57;;;2.50;;
56481;SDS011;42384;45.186;19.958;2023-01-06T01:53:43;4.82;;;2.50;;
56481;SDS011;42384;45.186;19.958;2023-01-06T01:56:12;8.00;;;2.30;;
56481;SDS011;42384;45.186;19.958;2023-01-06T01:58:41;6.30;;;2.97;;
56481;SDS011;42384;45.186;19.958;2023-01-06T02:01:09;6.38;;;2.13;;
56481;SDS011;42384;45.186;19.958;2023-01-06T02:03:36;9.75;;;3.10;;
56481;SDS011;42384;45.186;19.958;2023-01-06T02:06:03;7.93;;;2.55;;
56481;SDS011;42384;45.186;19.958;2023-01-06T02:08:37;7.60;;;2.95;;
56481;SDS011;42384;45.186;19.958;2023-01-06T02:11:05;4.78;;;2.45;;
56481;SDS011;42384;45.186;19.958;2023-01-06T02:18:56;5.32;;;2.28;;
56481;SDS011;42384;45.186;19.958;2023-01-06T02:21:31;7.60;;;2.92;;
56481;SDS011;42384;45.186;19.958;2023-01-06T02:24:05;6.03;;;2.50;;
56481;SDS011;42384;45.186;19.958;2023-01-06T02:31:42;6.20;;;2.50;;
56481;SDS011;42384;45.186;19.958;2023-01-06T02:41:42;6.55;;;3.03;;
56481;SDS011;42384;45.186;19.958;2023-01-06T02:51:56;8.13;;;3.10;;
56481;SDS011;42384;45.186;19.958;2023-01-06T02:54:35;6.72;;;2.83;;
56481;SDS011;42384;45.186;19.958;2023-01-06T02:59:49;6.45;;;3.20;;
56481;SDS011;42384;45.186;19.958;2023-01-06T03:02:18;4.80;;;2.63;;
56481;SDS011;42384;45.186;19.958;2023-01-06T03:04:45;6.15;;;3.08;;
56481;SDS011;42384;45.186;19.958;2023-01-06T03:07:13;7.00;;;2.83;;
56481;SDS011;42384;45.186;19.958;2023-01-06T03:09:40;8.95;;;3.47;;
56481;SDS011;42384;45.186;19.958;2023-01-06T03:12:07;7.97;;;3.00;;
56481;SDS011;42384;45.186;19.958;2023-01-06T03:14:38;10.13;;;3.83;;
56481;SDS011;42384;45.186;19.958;2023-01-06T03:17:06;6.10;;;2.80;;
56481;SDS011;42384;45.186;19.958;2023-01-06T03:19:32;9.03;;;2.93;;
56481;SDS011;42384;45.186;19.958;2023-01-06T03:21:59;9.20;;;3.20;;
56481;SDS011;42384;45.186;19.958;2023-01-06T03:24:26;6.32;;;3.08;;
56481;SDS011;42384;45.186;19.958;2023-01-06T03:26:53;9.80;;;4.25;;
56481;SDS011;42384;45.186;19.958;2023-01-06T03:29:19;7.53;;;3.58;;
56481;SDS011;42384;45.186;19.958;2023-01-06T03:34:26;6.47;;;3.65;;
56481;SDS011;42384;45.186;19.958;2023-01-06T03:39:28;5.87;;;2.73;;
56481;SDS011;42384;45.186;19.958;2023-01-06T03:42:41;6.30;;;2.97;;
56481;SDS011;42384;45.186;19.958;2023-01-06T03:45:09;6.65;;;2.42;;
56481;SDS011;42384;45.186;19.958;2023-01-06T03:47:45;9.55;;;3.10;;
56481;SDS011;42384;45.186;19.958;2023-01-06T03:50:24;5.70;;;2.25;;
56481;SDS011;42384;45.186;19.958;2023-01-06T03:53:56;7.57;;;2.67;;
56481;SDS011;42384;45.186;19.958;2023-01-06T03:55:50;6.35;;;2.63;;
56481;SDS011;42384;45.186;19.958;2023-01-06T03:58:18;7.88;;;3.15;;
56481;SDS011;42384;45.186;19.958;2023-01-06T04:00:45;5.05;;;2.40;;
56481;SDS011;42384;45.186;19.958;2023-01-06T04:03:11;8.10;;;2.95;;
56481;SDS011;42384;45.186;19.958;2023-01-06T04:05:38;5.93;;;2.47;;
56481;SDS011;42384;45.186;19.958;2023-01-06T04:08:05;7.00;;;2.35;;
56481;SDS011;42384;45.186;19.958;2023-01-06T04:10:31;4.63;;;2.43;;
56481;SDS011;42384;45.186;19.958;2023-01-06T04:12:57;5.45;;;2.63;;
56481;SDS011;42384;45.186;19.958;2023-01-06T04:15:24;10.80;;;3.77;;
56481;SDS011;42384;45.186;19.958;2023-01-06T04:17:53;4.95;;;2.53;;
56481;SDS011;42384;45.186;19.958;2023-01-06T04:20:23;4.67;;;2.23;;
56481;SDS011;42384;45.186;19.958;2023-01-06T04:22:53;6.35;;;3.05;;
56481;SDS011;42384;45.186;19.958;2023-01-06T04:25:20;5.82;;;2.38;;
56481;SDS011;42384;45.186;19.958;2023-01-06T04:27:47;6.43;;;2.50;;
56481;SDS011;42384;45.186;19.958;2023-01-06T04:30:13;4.07;;;2.10;;
56481;SDS011;42384;45.186;19.958;2023-01-06T04:32:39;5.00;;;2.30;;
56481;SDS011;42384;45.186;19.958;2023-01-06T04:35:05;4.97;;;2.57;;
56481;SDS011;42384;45.186;19.958;2023-01-06T04:37:32;7.93;;;2.55;;
56481;SDS011;42384;45.186;19.958;2023-01-06T04:39:59;8.10;;;2.03;;
56481;SDS011;42384;45.186;19.958;2023-01-06T04:42:25;7.72;;;2.72;;
56481;SDS011;42384;45.186;19.958;2023-01-06T04:44:51;11.00;;;3.70;;
56481;SDS011;42384;45.186;19.958;2023-01-06T04:47:18;11.00;;;3.40;;
56481;SDS011;42384;45.186;19.958;2023-01-06T04:49:44;7.47;;;2.73;;
56481;SDS011;42384;45.186;19.958;2023-01-06T04:52:10;6.47;;;2.73;;
56481;SDS011;42384;45.186;19.958;2023-01-06T04:54:36;6.93;;;2.92;;
56481;SDS011;42384;45.186;19.958;2023-01-06T04:57:03;10.15;;;2.67;;
56481;SDS011;42384;45.186;19.958;2023-01-06T04:59:29;8.82;;;2.88;;
56481;SDS011;42384;45.186;19.958;2023-01-06T05:01:55;5.88;;;1.92;;
56481;SDS011;42384;45.186;19.958;2023-01-06T05:04:21;6.63;;;2.17;;
56481;SDS011;42384;45.186;19.958;2023-01-06T05:06:48;8.10;;;2.07;;
56481;SDS011;42384;45.186;19.958;2023-01-06T05:09:14;7.30;;;2.17;;
56481;SDS011;42384;45.186;19.958;2023-01-06T05:11:40;20.23;;;2.67;;
56481;SDS011;42384;45.186;19.958;2023-01-06T05:14:06;5.83;;;2.30;;
56481;SDS011;42384;45.186;19.958;2023-01-06T05:16:33;7.03;;;2.70;;
56481;SDS011;42384;45.186;19.958;2023-01-06T05:18:59;8.18;;;2.75;;
56481;SDS011;42384;45.186;19.958;2023-01-06T05:21:26;6.28;;;2.17;;
56481;SDS011;42384;45.186;19.958;2023-01-06T05:23:53;9.75;;;2.97;;
56481;SDS011;42384;45.186;19.958;2023-01-06T05:26:23;6.72;;;2.78;;
56481;SDS011;42384;45.186;19.958;2023-01-06T05:28:50;6.88;;;2.67;;
56481;SDS011;42384;45.186;19.958;2023-01-06T05:31:16;8.60;;;3.17;;
56481;SDS011;42384;45.186;19.958;2023-01-06T05:33:42;7.57;;;3.10;;
56481;SDS011;42384;45.186;19.958;2023-01-06T05:36:13;5.40;;;2.38;;
56481;SDS011;42384;45.186;19.958;2023-01-06T05:38:39;6.22;;;2.28;;
56481;SDS011;42384;45.186;19.958;2023-01-06T05:41:06;8.83;;;2.03;;
56481;SDS011;42384;45.186;19.958;2023-01-06T05:43:34;8.40;;;2.50;;
56481;SDS011;42384;45.186;19.958;2023-01-06T05:46:07;5.97;;;2.72;;
56481;SDS011;42384;45.186;19.958;2023-01-06T05:48:34;5.45;;;2.33;;
56481;SDS011;42384;45.186;19.958;2023-01-06T05:51:01;7.40;;;2.83;;
56481;SDS011;42384;45.186;19.958;2023-01-06T05:53:29;9.82;;;3.67;;
56481;SDS011;42384;45.186;19.958;2023-01-06T05:55:58;9.63;;;2.85;;
56481;SDS011;42384;45.186;19.958;2023-01-06T05:58:25;9.63;;;2.63;;
56481;SDS011;42384;45.186;19.958;2023-01-06T06:00:51;7.53;;;3.50;;
56481;SDS011;42384;45.186;19.958;2023-01-06T06:03:17;5.93;;;2.30;;
56481;SDS011;42384;45.186;19.958;2023-01-06T06:05:43;10.03;;;2.67;;
56481;SDS011;42384;45.186;19.958;2023-01-06T06:08:10;9.40;;;2.47;;
56481;SDS011;42384;45.186;19.958;2023-01-06T06:10:36;8.98;;;2.85;;
56481;SDS011;42384;45.186;19.958;2023-01-06T06:13:02;8.20;;;2.47;;
56481;SDS011;42384;45.186;19.958;2023-01-06T06:15:28;7.63;;;2.73;;
56481;SDS011;42384;45.186;19.958;2023-01-06T06:17:54;5.68;;;1.98;;
56481;SDS011;42384;45.186;19.958;2023-01-06T06:20:21;7.53;;;2.60;;
56481;SDS011;42384;45.186;19.958;2023-01-06T06:22:47;8.20;;;3.03;;
56481;SDS011;42384;45.186;19.958;2023-01-06T06:25:13;9.52;;;2.53;;
56481;SDS011;42384;45.186;19.958;2023-01-06T06:27:40;9.95;;;2.53;;
56481;SDS011;42384;45.186;19.958;2023-01-06T06:30:06;11.73;;;2.93;;
56481;SDS011;42384;45.186;19.958;2023-01-06T06:32:32;8.82;;;2.40;;
56481;SDS011;42384;45.186;19.958;2023-01-06T06:34:59;8.82;;;2.88;;
56481;SDS011;42384;45.186;19.958;2023-01-06T06:37:25;6.80;;;2.77;;
56481;SDS011;42384;45.186;19.958;2023-01-06T06:39:51;8.30;;;2.35;;
56481;SDS011;42384;45.186;19.958;2023-01-06T06:42:17;10.20;;;2.50;;
56481;SDS011;42384;45.186;19.958;2023-01-06T06:44:43;6.43;;;2.23;;
56481;SDS011;42384;45.186;19.958;2023-01-06T06:47:10;10.00;;;2.58;;
56481;SDS011;42384;45.186;19.958;2023-01-06T06:49:36;8.65;;;2.45;;
56481;SDS011;42384;45.186;19.958;2023-01-06T06:52:02;5.87;;;2.23;;
56481;SDS011;42384;45.186;19.958;2023-01-06T06:54:29;7.90;;;2.50;;
56481;SDS011;42384;45.186;19.958;2023-01-06T06:56:55;6.33;;;2.10;;
56481;SDS011;42384;45.186;19.958;2023-01-06T06:59:21;8.47;;;2.63;;
56481;SDS011;42384;45.186;19.958;2023-01-06T07:01:47;6.87;;;2.00;;
56481;SDS011;42384;45.186;19.958;2023-01-06T07:04:14;7.20;;;2.80;;
56481;SDS011;42384;45.186;19.958;2023-01-06T07:06:40;10.97;;;3.23;;
56481;SDS011;42384;45.186;19.958;2023-01-06T07:09:06;10.60;;;2.80;;
56481;SDS011;42384;45.186;19.958;2023-01-06T07:11:32;8.68;;;2.95;;
56481;SDS011;42384;45.186;19.958;2023-01-06T07:13:58;9.77;;;2.80;;
56481;SDS011;42384;45.186;19.958;2023-01-06T07:16:24;8.50;;;2.88;;
56481;SDS011;42384;45.186;19.958;2023-01-06T07:18:51;7.03;;;2.73;;
56481;SDS011;42384;45.186;19.958;2023-01-06T07:21:17;10.30;;;2.78;;
56481;SDS011;42384;45.186;19.958;2023-01-06T07:23:43;9.07;;;2.73;;
56481;SDS011;42384;45.186;19.958;2023-01-06T07:26:10;10.40;;;2.70;;
56481;SDS011;42384;45.186;19.958;2023-01-06T07:28:36;9.53;;;2.63;;
56481;SDS011;42384;45.186;19.958;2023-01-06T07:31:02;7.75;;;2.67;;
56481;SDS011;42384;45.186;19.958;2023-01-06T07:33:29;11.07;;;2.72;;
56481;SDS011;42384;45.186;19.958;2023-01-06T07:35:56;13.20;;;3.60;;
56481;SDS011;42384;45.186;19.958;2023-01-06T07:38:22;7.25;;;2.80;;
56481;SDS011;42384;45.186;19.958;2023-01-06T07:40:49;8.98;;;2.42;;
56481;SDS011;42384;45.186;19.958;2023-01-06T07:43:15;9.35;;;2.55;;
56481;SDS011;42384;45.186;19.958;2023-01-06T07:45:42;9.03;;;2.43;;
56481;SDS011;42384;45.186;19.958;2023-01-06T07:48:08;7.03;;;2.00;;
56481;SDS011;42384;45.186;19.958;2023-01-06T07:50:34;8.10;;;2.30;;
56481;SDS011;42384;45.186;19.958;2023-01-06T07:53:01;6.97;;;2.22;;
56481;SDS011;42384;45.186;19.958;2023-01-06T07:55:28;6.32;;;1.88;;
56481;SDS011;42384;45.186;19.958;2023-01-06T07:57:54;10.35;;;2.05;;
56481;SDS011;42384;45.186;19.958;2023-01-06T08:00:22;6.32;;;1.88;;
56481;SDS011;42384;45.186;19.958;2023-01-06T08:02:48;10.23;;;3.33;;
56481;SDS011;42384;45.186;19.958;2023-01-06T08:05:15;7.63;;;2.80;;
56481;SDS011;42384;45.186;19.958;2023-01-06T08:07:41;6.88;;;2.65;;
56481;SDS011;42384;45.186;19.958;2023-01-06T08:10:08;8.00;;;2.40;;
56481;SDS011;42384;45.186;19.958;2023-01-06T08:12:34;6.97;;;2.40;;
56481;SDS011;42384;45.186;19.958;2023-01-06T08:15:01;6.68;;;2.67;;
56481;SDS011;42384;45.186;19.958;2023-01-06T08:17:27;8.82;;;2.13;;
56481;SDS011;42384;45.186;19.958;2023-01-06T08:19:54;8.93;;;2.13;;
56481;SDS011;42384;45.186;19.958;2023-01-06T08:22:21;8.00;;;2.33;;
56481;SDS011;42384;45.186;19.958;2023-01-06T08:24:47;9.87;;;2.90;;
56481;SDS011;42384;45.186;19.958;2023-01-06T08:27:13;7.10;;;2.30;;
56481;SDS011;42384;45.186;19.958;2023-01-06T08:29:39;10.77;;;3.03;;
56481;SDS011;42384;45.186;19.958;2023-01-06T08:32:06;11.37;;;2.93;;
56481;SDS011;42384;45.186;19.958;2023-01-06T08:34:32;13.73;;;3.23;;
56481;SDS011;42384;45.186;19.958;2023-01-06T08:36:58;13.23;;;2.55;;
56481;SDS011;42384;45.186;19.958;2023-01-06T08:39:24;9.67;;;2.80;;
56481;SDS011;42384;45.186;19.958;2023-01-06T08:41:50;7.50;;;2.00;;
56481;SDS011;42384;45.186;19.958;2023-01-06T08:44:18;7.53;;;2.10;;
56481;SDS011;42384;45.186;19.958;2023-01-06T08:46:44;8.15;;;2.85;;
56481;SDS011;42384;45.186;19.958;2023-01-06T08:49:11;9.65;;;2.28;;
56481;SDS011;42384;45.186;19.958;2023-01-06T08:51:37;7.73;;;2.30;;
56481;SDS011;42384;45.186;19.958;2023-01-06T08:54:03;5.93;;;2.50;;
56481;SDS011;42384;45.186;19.958;2023-01-06T08:56:29;6.70;;;2.30;;
56481;SDS011;42384;45.186;19.958;2023-01-06T08:58:57;8.60;;;3.00;;
56481;SDS011;42384;45.186;19.958;2023-01-06T09:01:24;7.97;;;3.15;;
56481;SDS011;42384;45.186;19.958;2023-01-06T09:03:51;8.30;;;3.33;;
56481;SDS011;42384;45.186;19.958;2023-01-06T09:06:18;9.80;;;3.63;;
56481;SDS011;42384;45.186;19.958;2023-01-06T09:08:45;10.98;;;4.40;;
56481;SDS011;42384;45.186;19.958;2023-01-06T09:11:13;15.20;;;5.20;;
56481;SDS011;42384;45.186;19.958;2023-01-06T09:13:39;11.05;;;4.95;;
56481;SDS011;42384;45.186;19.958;2023-01-06T09:16:06;9.43;;;4.15;;
56481;SDS011;42384;45.186;19.958;2023-01-06T09:18:32;15.63;;;5.45;;
56481;SDS011;42384;45.186;19.958;2023-01-06T09:20:59;12.18;;;4.35;;
56481;SDS011;42384;45.186;19.958;2023-01-06T09:23:25;8.57;;;4.25;;
56481;SDS011;42384;45.186;19.958;2023-01-06T09:25:53;11.07;;;3.75;;
56481;SDS011;42384;45.186;19.958;2023-01-06T09:28:20;13.52;;;4.28;;
56481;SDS011;42384;45.186;19.958;2023-01-06T09:30:46;9.93;;;4.85;;
56481;SDS011;42384;45.186;19.958;2023-01-06T09:33:13;11.27;;;4.60;;
56481;SDS011;42384;45.186;19.958;2023-01-06T09:35:39;11.13;;;4.82;;
56481;SDS011;42384;45.186;19.958;2023-01-06T09:38:06;13.75;;;4.70;;
56481;SDS011;42384;45.186;19.958;2023-01-06T09:40:38;18.03;;;6.03;;
56481;SDS011;42384;45.186;19.958;2023-01-06T09:43:13;13.27;;;4.85;;
56481;SDS011;42384;45.186;19.958;2023-01-06T09:45:46;11.85;;;3.92;;
56481;SDS011;42384;45.186;19.958;2023-01-06T09:48:15;13.90;;;6.32;;
56481;SDS011;42384;45.186;19.958;2023-01-06T09:50:42;16.02;;;5.43;;
56481;SDS011;42384;45.186;19.958;2023-01-06T09:53:11;15.85;;;6.50;;
56481;SDS011;42384;45.186;19.958;2023-01-06T09:55:42;14.85;;;5.18;;
56481;SDS011;42384;45.186;19.958;2023-01-06T09:58:13;13.50;;;4.90;;
56481;SDS011;42384;45.186;19.958;2023-01-06T10:00:42;13.07;;;4.28;;
56481;SDS011;42384;45.186;19.958;2023-01-06T10:03:12;13.23;;;3.88;;
56481;SDS011;42384;45.186;19.958;2023-01-06T10:10:41;14.47;;;3.80;;
56481;SDS011;42384;45.186;19.958;2023-01-06T10:18:19;9.67;;;3.40;;
56481;SDS011;42384;45.186;19.958;2023-01-06T10:20:54;11.77;;;3.42;;
56481;SDS011;42384;45.186;19.958;2023-01-06T10:25:54;9.95;;;3.35;;
56481;SDS011;42384;45.186;19.958;2023-01-06T10:28:45;12.70;;;4.15;;
56481;SDS011;42384;45.186;19.958;2023-01-06T10:31:18;10.68;;;2.97;;
56481;SDS011;42384;45.186;19.958;2023-01-06T10:33:46;10.13;;;3.40;;
56481;SDS011;42384;45.186;19.958;2023-01-06T10:36:14;10.63;;;3.10;;
56481;SDS011;42384;45.186;19.958;2023-01-06T10:38:48;9.93;;;3.63;;
56481;SDS011;42384;45.186;19.958;2023-01-06T10:41:21;12.00;;;3.50;;
56481;SDS011;42384;45.186;19.958;2023-01-06T10:43:49;11.93;;;3.33;;
56481;SDS011;42384;45.186;19.958;2023-01-06T10:46:16;10.50;;;3.00;;
56481;SDS011;42384;45.186;19.958;2023-01-06T10:48:42;12.98;;;3.45;;
56481;SDS011;42384;45.186;19.958;2023-01-06T10:53:44;12.85;;;3.47;;
56481;SDS011;42384;45.186;19.958;2023-01-06T10:56:10;11.90;;;4.30;;
56481;SDS011;42384;45.186;19.958;2023-01-06T10:58:41;12.07;;;3.92;;
56481;SDS011;42384;45.186;19.958;2023-01-06T11:01:09;10.13;;;3.63;;
56481;SDS011;42384;45.186;19.958;2023-01-06T11:03:36;10.90;;;3.10;;
56481;SDS011;42384;45.186;19.958;2023-01-06T11:08:33;10.27;;;2.65;;
56481;SDS011;42384;45.186;19.958;2023-01-06T11:11:00;8.35;;;2.65;;
56481;SDS011;42384;45.186;19.958;2023-01-06T11:13:30;13.47;;;3.43;;
56481;SDS011;42384;45.186;19.958;2023-01-06T11:15:58;11.23;;;3.78;;
56481;SDS011;42384;45.186;19.958;2023-01-06T11:21:12;9.70;;;4.55;;
56481;SDS011;42384;45.186;19.958;2023-01-06T11:23:37;10.77;;;3.80;;
56481;SDS011;42384;45.186;19.958;2023-01-06T11:26:06;10.73;;;3.40;;
56481;SDS011;42384;45.186;19.958;2023-01-06T11:28:34;11.93;;;3.67;;
56481;SDS011;42384;45.186;19.958;2023-01-06T11:31:04;15.03;;;3.77;;
56481;SDS011;42384;45.186;19.958;2023-01-06T11:33:31;12.65;;;6.07;;
56481;SDS011;42384;45.186;19.958;2023-01-06T11:36:05;21.30;;;7.82;;
56481;SDS011;42384;45.186;19.958;2023-01-06T11:38:31;12.88;;;3.05;;
56481;SDS011;42384;45.186;19.958;2023-01-06T11:41:06;10.07;;;3.47;;
56481;SDS011;42384;45.186;19.958;2023-01-06T11:43:33;12.57;;;2.80;;
56481;SDS011;42384;45.186;19.958;2023-01-06T11:46:00;13.43;;;4.22;;
56481;SDS011;42384;45.186;19.958;2023-01-06T11:48:29;11.57;;;3.53;;
56481;SDS011;42384;45.186;19.958;2023-01-06T11:50:58;13.90;;;4.20;;
56481;SDS011;42384;45.186;19.958;2023-01-06T11:53:24;10.23;;;3.63;;
56481;SDS011;42384;45.186;19.958;2023-01-06T11:58:18;10.98;;;3.30;;
56481;SDS011;42384;45.186;19.958;2023-01-06T12:06:11;11.07;;;2.45;;
56481;SDS011;42384;45.186;19.958;2023-01-06T12:08:47;10.10;;;3.15;;
56481;SDS011;42384;45.186;19.958;2023-01-06T12:13:42;9.77;;;3.77;;
56481;SDS011;42384;45.186;19.958;2023-01-06T12:16:12;10.65;;;3.97;;
56481;SDS011;42384;45.186;19.958;2023-01-06T12:18:40;10.05;;;2.67;;
56481;SDS011;42384;45.186;19.958;2023-01-06T12:21:07;6.65;;;2.38;;
56481;SDS011;42384;45.186;19.958;2023-01-06T12:23:35;11.02;;;2.17;;
56481;SDS011;42384;45.186;19.958;2023-01-06T12:26:03;9.32;;;2.50;;
56481;SDS011;42384;45.186;19.958;2023-01-06T12:28:37;12.25;;;2.55;;
56481;SDS011;42384;45.186;19.958;2023-01-06T12:31:27;6.53;;;2.15;;
56481;SDS011;42384;45.186;19.958;2023-01-06T12:33:56;8.43;;;3.80;;
56481;SDS011;42384;45.186;19.958;2023-01-06T12:36:32;9.93;;;3.15;;
56481;SDS011;42384;45.186;19.958;2023-01-06T12:39:03;5.55;;;2.70;;
56481;SDS011;42384;45.186;19.958;2023-01-06T12:44:08;10.48;;;2.83;;
56481;SDS011;42384;45.186;19.958;2023-01-06T12:46:38;10.30;;;2.70;;
56481;SDS011;42384;45.186;19.958;2023-01-06T12:49:07;8.60;;;3.13;;
56481;SDS011;42384;45.186;19.958;2023-01-06T12:51:45;8.18;;;3.10;;
56481;SDS011;42384;45.186;19.958;2023-01-06T12:54:16;9.35;;;3.20;;
56481;SDS011;42384;45.186;19.958;2023-01-06T12:59:39;11.07;;;3.08;;
56481;SDS011;42384;45.186;19.958;2023-01-06T13:07:46;21.77;;;11.90;;
56481;SDS011;42384;45.186;19.958;2023-01-06T13:15:30;9.23;;;4.35;;
56481;SDS011;42384;45.186;19.958;2023-01-06T13:18:00;35.78;;;17.05;;
56481;SDS011;42384;45.186;19.958;2023-01-06T13:20:49;19.50;;;7.63;;
56481;SDS011;42384;45.186;19.958;2023-01-06T13:25:45;31.40;;;13.60;;
56481;SDS011;42384;45.186;19.958;2023-01-06T13:41:04;10.90;;;3.90;;
56481;SDS011;42384;45.186;19.958;2023-01-06T13:45:58;11.45;;;4.70;;
56481;SDS011;42384;45.186;19.958;2023-01-06T13:48:27;13.20;;;4.50;;
56481;SDS011;42384;45.186;19.958;2023-01-06T13:50:55;10.48;;;3.45;;
56481;SDS011;42384;45.186;19.958;2023-01-06T13:53:23;14.73;;;5.63;;
56481;SDS011;42384;45.186;19.958;2023-01-06T13:58:35;12.02;;;4.82;;
56481;SDS011;42384;45.186;19.958;2023-01-06T14:01:09;9.27;;;4.05;;
56481;SDS011;42384;45.186;19.958;2023-01-06T14:03:36;11.13;;;3.70;;
56481;SDS011;42384;45.186;19.958;2023-01-06T14:06:03;10.30;;;3.00;;
56481;SDS011;42384;45.186;19.958;2023-01-06T14:10:59;10.77;;;3.13;;
56481;SDS011;42384;45.186;19.958;2023-01-06T14:15:54;11.25;;;3.67;;
56481;SDS011;42384;45.186;19.958;2023-01-06T14:19:02;12.40;;;3.90;;
56481;SDS011;42384;45.186;19.958;2023-01-06T14:21:26;9.48;;;4.38;;
56481;SDS011;42384;45.186;19.958;2023-01-06T14:24:00;16.25;;;5.57;;
56481;SDS011;42384;45.186;19.958;2023-01-06T14:29:45;14.75;;;5.30;;
56481;SDS011;42384;45.186;19.958;2023-01-06T14:34:54;17.88;;;5.13;;
56481;SDS011;42384;45.186;19.958;2023-01-06T14:37:43;10.73;;;5.32;;
56481;SDS011;42384;45.186;19.958;2023-01-06T14:40:15;11.65;;;4.15;;
56481;SDS011;42384;45.186;19.958;2023-01-06T14:42:43;11.05;;;3.53;;
56481;SDS011;42384;45.186;19.958;2023-01-06T14:47:41;23.88;;;10.98;;
56481;SDS011;42384;45.186;19.958;2023-01-06T14:50:13;16.63;;;7.18;;
56481;SDS011;42384;45.186;19.958;2023-01-06T14:52:41;15.90;;;7.57;;
56481;SDS011;42384;45.186;19.958;2023-01-06T14:55:12;14.20;;;4.75;;
56481;SDS011;42384;45.186;19.958;2023-01-06T14:57:39;11.38;;;4.60;;
56481;SDS011;42384;45.186;19.958;2023-01-06T15:05:36;10.40;;;3.97;;
56481;SDS011;42384;45.186;19.958;2023-01-06T15:08:04;11.65;;;4.22;;
56481;SDS011;42384;45.186;19.958;2023-01-06T15:10:31;8.40;;;3.55;;
56481;SDS011;42384;45.186;19.958;2023-01-06T15:12:59;11.52;;;3.72;;
56481;SDS011;42384;45.186;19.958;2023-01-06T15:15:29;12.85;;;3.97;;
56481;SDS011;42384;45.186;19.958;2023-01-06T15:17:56;12.10;;;3.85;;
56481;SDS011;42384;45.186;19.958;2023-01-06T15:22:49;9.85;;;3.65;;
56481;SDS011;42384;45.186;19.958;2023-01-06T15:25:17;13.52;;;4.47;;
56481;SDS011;42384;45.186;19.958;2023-01-06T15:27:45;13.85;;;5.25;;
56481;SDS011;42384;45.186;19.958;2023-01-06T15:30:15;9.70;;;4.40;;
56481;SDS011;42384;45.186;19.958;2023-01-06T15:32:42;15.95;;;5.20;;
56481;SDS011;42384;45.186;19.958;2023-01-06T15:35:11;15.02;;;5.18;;
56481;SDS011;42384;45.186;19.958;2023-01-06T15:37:39;16.83;;;5.60;;
56481;SDS011;42384;45.186;19.958;2023-01-06T15:40:05;14.95;;;5.78;;
56481;SDS011;42384;45.186;19.958;2023-01-06T15:42:32;10.50;;;4.90;;
56481;SDS011;42384;45.186;19.958;2023-01-06T15:45:00;45.28;;;25.33;;
56481;SDS011;42384;45.186;19.958;2023-01-06T15:47:31;56.20;;;31.77;;
56481;SDS011;42384;45.186;19.958;2023-01-06T15:49:59;35.17;;;18.83;;
56481;SDS011;42384;45.186;19.958;2023-01-06T15:52:31;15.38;;;7.22;;
56481;SDS011;42384;45.186;19.958;2023-01-06T15:54:58;17.60;;;8.63;;
56481;SDS011;42384;45.186;19.958;2023-01-06T15:57:25;18.75;;;8.30;;
56481;SDS011;42384;45.186;19.958;2023-01-06T15:59:56;18.25;;;9.50;;
56481;SDS011;42384;45.186;19.958;2023-01-06T16:02:27;18.92;;;8.73;;
56481;SDS011;42384;45.186;19.958;2023-01-06T16:04:54;15.45;;;7.47;;
56481;SDS011;42384;45.186;19.958;2023-01-06T16:07:59;15.63;;;6.28;;
56481;SDS011;42384;45.186;19.958;2023-01-06T16:10:28;13.45;;;6.10;;
56481;SDS011;42384;45.186;19.958;2023-01-06T16:16:02;19.80;;;8.60;;
56481;SDS011;42384;45.186;19.958;2023-01-06T16:18:30;16.98;;;7.57;;
56481;SDS011;42384;45.186;19.958;2023-01-06T16:20:57;16.02;;;6.38;;
56481;SDS011;42384;45.186;19.958;2023-01-06T16:23:33;24.17;;;6.47;;
56481;SDS011;42384;45.186;19.958;2023-01-06T16:26:11;14.57;;;5.63;;
56481;SDS011;42384;45.186;19.958;2023-01-06T16:28:42;11.25;;;4.93;;
56481;SDS011;42384;45.186;19.958;2023-01-06T16:31:10;17.23;;;5.30;;
56481;SDS011;42384;45.186;19.958;2023-01-06T16:33:43;21.42;;;7.57;;
56481;SDS011;42384;45.186;19.958;2023-01-06T16:36:15;14.70;;;6.13;;
56481;SDS011;42384;45.186;19.958;2023-01-06T16:38:42;18.13;;;7.78;;
56481;SDS011;42384;45.186;19.958;2023-01-06T16:41:15;17.50;;;5.95;;